Ana Sayfa
METAR-TAF:

METAR-TAF

Havaalanları :

Sandpoint Airport (Dave Wall Field)

Sandpoint, Idaho, Amerika Birleşik Devletleri

Enlem: 48-17-58N, Boylam: 116-33-36W, yükseklik: 648 m

Güncel hava durumu gözlemi

Rapor saat 02:15 UTC de 22 dakika önce yapıldı.
Rüzgar kuzey/kuzeydoğudan 6 kt
Sıcaklık 6°C
Nem 87%
Basınç 1009 hPa
Görüş mesafesi: 16.1 km
12000 ft yükseklikte parçalı çok bulutlu

METAR: KSZT 190215Z AUTO 03006KT 10SM BKN120 06/04 A2981 RMK AO2

Saat: 18:37 (02:37 UTC)


TAF: eksik

4.000'den fazla havaalanı için hava durumu gözlemleri ve tahminleri (METAR ve TAF raporları).

Kullanılabilir istasyonlar harita üzerinde sarı ve kırmızı noktalarla gösterilir.

İstasyonun adını görmek için fareyi noktanın üzerinde gezdirin.

Sonrasında hava gözlem ve tahminlerini görmek için tıklayın.

Haritayı değiştirmek için: yaklaştırmak için siyah artı işaretli yeşil düğmeye ve uzaklaştırmak için de eksi işaretli düğmeye hızla tıklayın; bitişik haritalar için yeşil okları kullanın.


METAR-TAF: